Berger, MO (63014)

10:45 PM CDT die 31o October, anno 2014 (GMT -0500)
St. George | Change Station
CLOSE
Current Station
Personal Weather Stations
Location: Hermann, MO
Elevation: 572 ft
Nearby Weather Stations
Active Advisory: Freeze Warning

Elev 572 ft 38.70 °N, 91.44 °W | Updated 4 seconds ago

Serena
Serena
35.6 °F
Feels Like 36 °F
N
0.0
Ventus Variabilis Ventus from Aquilo
Gusts 2.2 mph

Hodie
High -- | Low -- °F
--% Chance of Precip.
Yesterday
High -- | Low -- °F
Precip. -- in
7:30 AM 6:06 PM
First Quarter, 62% visible
Pressio 30.39 in
Visibilitas 10.0 milia passuum
Clouds Serena
Frigus Venti 36 °F
Frigus in quo Ros apparet 22 °F
Umor 58%
Rainfall 0.00 in
Snow Depth Not available.
UV 0 out of 12
Pollen 1.60 out of 12
Air Quality Not available.
Flu Activity Not available.
METAR KFYG 010335Z AUTO 34004KT 10SM CLR 02/M05 A3039 RMK AO2

More Conditions Fewer Conditions

Pressio 30.39 in
Visibilitas 10.0 milia passuum
Clouds Serena
Frigus Venti 36 °F
Frigus in quo Ros apparet 22 °F
Umor 58%
Rainfall 0.00 in
Snow Depth Not available.
UV 0 out of 12
Pollen 1.60 out of 12
Air Quality Not available.
Flu Activity Not available.
METAR KFYG 010335Z AUTO 34004KT 10SM CLR 02/M05 A3039 RMK AO2

More Conditions Fewer Conditions

10-Day Weather Forecast

Almanac

Astronomy

Oct. 31, 2014 Rise Set
Actual Time
Civil Twilight
Nautical Twilight
Astronomical Twilight
Moon
Length Of Visible Light
Length of Day
Tomorrow will be .
, % of the Moon is Illuminated

Today's Extremes

State Highs State Lows

Community

WunderPhotos

Upload Photos

1,766,847 photos uploaded!

WunderBlogs® & News

Nearby

Air Quality

  Air Quality AQ Index Pollutant
Not available.

Snow Depth

Station Depth Elevation

Earthquake Activity

City Distance Mag. Time & Date
Minimum magnitude displayed is 2.5.

Coastal Water Temperatures

Locus Calor

Nearby Weather Stations